Time;durP1;ratioP1;P1;durP2;ratioP2;P2;SDS_P1;SDS_P2;PMS_P1;PMS_P2;Temp;Humidity;BMP_temperature;BMP_pressure;BME280_temperature;BME280_humidity;BME280_pressure;Samples;Min_cycle;Max_cycle;Signal;HPM_P1;HPM_P2
2023/11/10 00:01:30;;;;;;;;;;;;;;;29.43;72.41;101149.56;5084808;27;70713;-38
2023/11/10 00:04:00;;;;;;;;;;;;;;;29.40;71.16;101156.22;5095074;27;66378;-38
2023/11/10 00:06:31;;;;;;;;;;;;;;;29.43;67.34;101163.06;5097509;27;70534;-39
2023/11/10 00:09:03;;;;;;;;;;;;;;;29.45;66.14;101163.69;5084961;27;67194;-38
2023/11/10 00:11:33;;;;;;;;;;;;;;;29.49;64.65;101162.25;5091559;27;70804;-38
2023/11/10 00:14:03;;;;;;;;;;;;;;;29.52;64.27;101173.47;5091066;27;66580;-38
2023/11/10 00:16:45;;;;;;;;;;;;;;;29.57;64.27;101178.28;5093159;27;70906;-39
2023/11/10 00:19:15;;;;;;;;;;;;;;;29.60;64.16;101185.97;5095089;27;67183;-39
2023/11/10 00:21:50;;;;;;;;;;;;;;;29.47;64.41;101158.91;5070450;27;70794;-38
2023/11/10 00:24:23;;;;;;;;;;;;;;;29.66;63.89;101187.06;5090301;27;66583;-39
2023/11/10 00:26:53;;;;;;;;;;;;;;;29.70;64.21;101183.75;5084200;27;69687;-43
2023/11/10 00:29:22;;;;;;;;;;;;;;;29.73;64.75;101179.81;5089254;27;66915;-38
2023/11/10 00:31:52;;;;;;;;;;;;;;;29.78;70.96;101190.81;5089547;27;70508;-38
2023/11/10 00:34:22;;;;;;;;;;;;;;;29.83;73.31;101183.75;5099004;27;66731;-38
2023/11/10 00:36:52;;;;;;;;;;;;;;;29.84;74.23;101187.31;5077382;27;69867;-38
2023/11/10 00:39:22;;;;;;;;;;;;;;;29.87;75.03;101186.06;5100046;27;66789;-38
2023/11/10 00:41:52;;;;;;;;;;;;;;;29.86;75.20;101197.91;5078516;27;70195;-38
2023/11/10 00:44:22;;;;;;;;;;;;;;;29.88;74.80;101214.78;5100283;27;68053;-39
2023/11/10 00:46:52;;;;;;;;;;;;;;;29.88;75.41;101212.06;5071619;27;70921;-39
2023/11/10 00:49:24;;;;;;;;;;;;;;;29.88;75.20;101212.06;5101979;27;68560;-39
2023/11/10 00:51:54;;;;;;;;;;;;;;;29.88;76.02;101223.72;5079177;27;70867;-37
2023/11/10 00:54:23;;;;;;;;;;;;;;;29.91;75.98;101217.06;5097216;27;65767;-37
2023/11/10 00:56:53;;;;;;;;;;;;;;;29.92;76.02;101224.13;5075984;27;69909;-38
2023/11/10 00:59:24;;;;;;;;;;;;;;;29.92;74.20;101224.13;5077876;27;66353;-37
2023/11/10 01:01:53;;;;;;;;;;;;;;;29.94;71.83;101222.06;5099334;27;70593;-36
2023/11/10 01:04:24;;;;;;;;;;;;;;;29.97;70.58;101224.34;5086030;27;65939;-49
2023/11/10 01:06:54;;;;;;;;;;;;;;;29.99;70.02;101230.41;5081729;27;71272;-37
2023/11/10 01:09:24;;;;;;;;;;;;;;;30.01;69.36;101223.75;5104616;27;66889;-37
2023/11/10 01:11:54;;;;;;;;;;;;;;;30.05;68.91;101229.56;5103355;27;70193;-38
2023/11/10 01:14:25;;;;;;;;;;;;;;;30.07;68.32;101232.91;5100843;27;66074;-37
2023/11/10 01:16:56;;;;;;;;;;;;;;;30.10;68.68;101240.59;5100563;27;70174;-37
2023/11/10 01:19:27;;;;;;;;;;;;;;;30.11;67.87;101236.84;5103254;27;66060;-37
2023/11/10 01:21:57;;;;;;;;;;;;;;;30.12;68.06;101235.81;5083469;27;70667;-41
2023/11/10 01:24:26;;;;;;;;;;;;;;;30.15;67.66;101240.81;5102843;27;66813;-37
2023/11/10 01:26:56;;;;;;;;;;;;;;;30.15;67.89;101235.41;5101224;27;69525;-37
2023/11/10 01:29:26;;;;;;;;;;;;;;;30.18;67.36;101235.00;5102480;27;65774;-37
2023/11/10 01:31:56;;;;;;;;;;;;;;;30.21;66.97;101247.28;5102235;27;70138;-37
2023/11/10 01:34:25;;;;;;;;;;;;;;;30.21;67.25;101248.09;5094808;27;67267;-37
2023/11/10 01:36:55;;;;;;;;;;;;;;;30.23;67.43;101243.34;5084449;27;69955;-38
2023/11/10 01:39:25;;;;;;;;;;;;;;;30.24;67.03;101242.31;5102986;27;66151;-37
2023/11/10 01:41:55;;;;;;;;;;;;;;;30.26;67.19;101248.34;5091750;27;70284;-42
2023/11/10 01:44:25;;;;;;;;;;;;;;;30.28;66.75;101249.00;5083781;27;66887;-38
2023/11/10 01:46:55;;;;;;;;;;;;;;;30.31;66.58;101246.88;5084683;27;69334;-37
2023/11/10 01:49:27;;;;;;;;;;;;;;;30.33;67.00;101250.22;5084071;27;66924;-37
2023/11/10 01:51:57;;;;;;;;;;;;;;;30.34;66.40;101250.03;5100029;27;70076;-37
2023/11/10 01:54:29;;;;;;;;;;;;;;;30.36;66.48;101249.81;5101471;27;66181;-37
2023/11/10 01:56:58;;;;;;;;;;;;;;;30.38;66.49;101250.44;5084270;27;69006;-37
2023/11/10 01:59:28;;;;;;;;;;;;;;;30.39;66.32;101246.69;5084412;27;66447;-36
2023/11/10 02:01:59;;;;;;;;;;;;;;;30.42;66.71;101254.38;5100331;27;70630;-37
2023/11/10 02:04:28;;;;;;;;;;;;;;;30.44;66.43;101255.00;5082664;27;65940;-37
2023/11/10 02:06:59;;;;;;;;;;;;;;;30.45;66.81;101254.81;5083650;27;70591;-40
2023/11/10 02:09:29;;;;;;;;;;;;;;;30.47;66.50;101254.59;5102201;27;65812;-38
2023/11/10 02:11:59;;;;;;;;;;;;;;;30.48;66.60;101257.09;5080032;27;69614;-37
2023/11/10 02:14:32;;;;;;;;;;;;;;;30.51;66.06;101255.84;5083612;27;66454;-38
2023/11/10 02:17:02;;;;;;;;;;;;;;;30.54;66.19;101254.59;5100766;27;70796;-37
2023/11/10 02:19:32;;;;;;;;;;;;;;;30.56;65.94;101247.91;5099859;27;66835;-38
2023/11/10 02:22:04;;;;;;;;;;;;;;;30.57;66.03;101248.78;5083401;27;71390;-37
2023/11/10 02:24:36;;;;;;;;;;;;;;;30.60;66.29;101235.63;5080585;28;66954;-37
2023/11/10 02:27:06;;;;;;;;;;;;;;;30.61;66.01;101240.00;5080491;27;70504;-37
2023/11/10 02:29:39;;;;;;;;;;;;;;;30.63;65.89;101240.63;5101399;27;66671;-37
2023/11/10 02:32:11;;;;;;;;;;;;;;;30.65;66.17;101233.13;5100794;27;70758;-39
2023/11/10 02:34:41;;;;;;;;;;;;;;;30.68;66.10;101235.41;5081980;27;66742;-38
2023/11/10 02:37:15;;;;;;;;;;;;;;;30.70;65.96;101236.06;5101538;27;62591;-37
2023/11/10 02:39:45;;;;;;;;;;;;;;;30.72;65.88;101225.81;5100073;27;66315;-37
2023/11/10 02:42:14;;;;;;;;;;;;;;;30.73;66.15;101224.78;5082508;27;70610;-37
2023/11/10 02:44:44;;;;;;;;;;;;;;;30.76;65.81;101231.66;5082154;27;65487;-37
2023/11/10 02:47:14;;;;;;;;;;;;;;;30.78;65.61;101226.84;5101053;27;70538;-38
2023/11/10 02:49:44;;;;;;;;;;;;;;;30.81;65.59;101233.75;5082102;27;66978;-38
2023/11/10 02:52:14;;;;;;;;;;;;;;;30.84;65.86;101233.31;5082249;27;70497;-37
2023/11/10 02:54:44;;;;;;;;;;;;;;;30.86;66.05;101231.25;5082404;27;67106;-37
2023/11/10 02:57:13;;;;;;;;;;;;;;;30.89;65.82;101230.81;5100938;27;70115;-38
2023/11/10 02:59:43;;;;;;;;;;;;;;;30.90;65.52;101227.91;5101049;27;66982;-37
2023/11/10 03:02:14;;;;;;;;;;;;;;;30.79;65.36;101203.34;5096890;27;70031;-38
2023/11/10 03:04:44;;;;;;;;;;;;;;;30.95;65.44;101213.72;5100221;27;66800;-37
2023/11/10 03:07:14;;;;;;;;;;;;;;;30.97;65.72;101216.22;5100989;27;71886;-38
2023/11/10 03:09:44;;;;;;;;;;;;;;;30.99;65.63;101206.84;5100906;27;66860;-37
2023/11/10 03:12:14;;;;;;;;;;;;;;;31.01;65.49;101212.88;5083271;27;70545;-38
2023/11/10 03:14:48;;;;;;;;;;;;;;;31.03;65.50;101205.34;5102018;27;66515;-38
2023/11/10 03:17:17;;;;;;;;;;;;;;;31.07;65.38;101203.88;5100819;27;69557;-37
2023/11/10 03:19:47;;;;;;;;;;;;;;;31.09;65.27;101201.81;5101781;27;66206;-38
2023/11/10 03:22:17;;;;;;;;;;;;;;;31.11;65.36;101201.56;5101138;27;70359;-37
2023/11/10 03:24:47;;;;;;;;;;;;;;;31.12;65.62;101198.66;5100880;27;66140;-38
2023/11/10 03:27:17;;;;;;;;;;;;;;;31.15;65.12;101192.81;5099785;27;70652;-38
2023/11/10 03:29:47;;;;;;;;;;;;;;;31.19;65.37;101189.66;5091478;27;65994;-37
2023/11/10 03:32:18;;;;;;;;;;;;;;;31.21;65.18;101177.56;5099510;27;70549;-38
2023/11/10 03:34:48;;;;;;;;;;;;;;;31.23;65.40;101171.91;5102682;27;65269;-37
2023/11/10 03:37:19;;;;;;;;;;;;;;;31.25;65.08;101167.94;5099762;27;70221;-38
2023/11/10 03:39:50;;;;;;;;;;;;;;;31.28;64.83;101163.97;5098058;27;66691;-38
2023/11/10 03:42:20;;;;;;;;;;;;;;;31.30;65.24;101168.13;5074408;27;69838;-37
2023/11/10 03:44:50;;;;;;;;;;;;;;;31.32;65.08;101162.50;5083157;27;66968;-37
2023/11/10 03:47:20;;;;;;;;;;;;;;;31.35;64.64;101159.38;5095812;27;70513;-37
2023/11/10 03:49:50;;;;;;;;;;;;;;;31.38;64.63;101158.97;5100751;27;65971;-37
2023/11/10 03:52:19;;;;;;;;;;;;;;;31.39;64.60;101150.59;5103652;27;71286;-37
2023/11/10 03:54:49;;;;;;;;;;;;;;;31.41;64.72;101153.09;5100642;27;67493;-37
2023/11/10 03:57:19;;;;;;;;;;;;;;;31.44;64.69;101152.66;5103412;27;70610;-37
2023/11/10 03:59:50;;;;;;;;;;;;;;;31.45;64.68;101148.91;5104357;27;66439;-37
2023/11/10 04:02:20;;;;;;;;;;;;;;;31.48;64.30;101143.06;5102227;27;70688;-37
2023/11/10 04:04:49;;;;;;;;;;;;;;;31.50;64.77;101134.69;5102430;27;66675;-38
2023/11/10 04:07:19;;;;;;;;;;;;;;;31.52;64.61;101122.59;5103599;27;70237;-38
2023/11/10 04:09:49;;;;;;;;;;;;;;;31.54;64.64;101130.50;5099853;27;66956;-39
2023/11/10 04:12:19;;;;;;;;;;;;;;;31.57;64.47;101130.06;5103468;27;70470;-37
2023/11/10 04:14:52;;;;;;;;;;;;;;;31.58;64.57;101121.69;5101950;27;66100;-37
2023/11/10 04:17:23;;;;;;;;;;;;;;;31.27;64.41;101064.75;5102479;27;70786;-37
2023/11/10 04:19:54;;;;;;;;;;;;;;;31.62;64.38;101119.38;5087460;27;66491;-37
2023/11/10 04:22:26;;;;;;;;;;;;;;;31.63;64.46;101112.09;5104519;27;70074;-37
2023/11/10 04:24:55;;;;;;;;;;;;;;;31.64;64.68;101101.00;5103836;27;65732;-37
2023/11/10 04:27:25;;;;;;;;;;;;;;;31.66;64.47;101096.19;5103423;27;70335;-37
2023/11/10 04:29:55;;;;;;;;;;;;;;;31.68;64.23;101079.69;5102949;27;66972;-37
2023/11/10 04:32:25;;;;;;;;;;;;;;;31.70;64.39;101080.31;5102562;27;69909;-37
2023/11/10 04:35:01;;;;;;;;;;;;;;;31.72;64.34;101080.94;5086447;27;66533;-37
2023/11/10 04:37:31;;;;;;;;;;;;;;;31.74;64.21;101070.69;5094470;27;69702;-36
2023/11/10 04:40:01;;;;;;;;;;;;;;;31.76;64.30;101060.44;5102541;27;66017;-36
2023/11/10 04:42:31;;;;;;;;;;;;;;;31.78;64.21;101056.44;5085249;27;69968;-36
2023/11/10 04:45:01;;;;;;;;;;;;;;;31.80;64.19;101050.81;5102010;27;66310;-36
2023/11/10 04:47:31;;;;;;;;;;;;;;;31.81;64.04;101039.72;5102832;27;69902;-38
2023/11/10 04:50:01;;;;;;;;;;;;;;;31.85;64.18;101042.03;5102385;27;67075;-36
2023/11/10 04:52:31;;;;;;;;;;;;;;;31.87;63.93;101039.88;5101435;27;70808;-37
2023/11/10 04:55:00;;;;;;;;;;;;;;;31.89;63.97;101035.06;5102997;27;66999;-37
2023/11/10 04:57:30;;;;;;;;;;;;;;;31.91;64.03;101033.84;5101929;27;67942;-37
2023/11/10 05:00:00;;;;;;;;;;;;;;;31.93;63.72;101014.59;5101366;27;66589;-37
2023/11/10 05:02:32;;;;;;;;;;;;;;;31.94;63.69;101017.09;5096868;27;70150;-38
2023/11/10 05:05:03;;;;;;;;;;;;;;;31.96;63.80;100998.72;5102545;27;66123;-37
2023/11/10 05:07:33;;;;;;;;;;;;;;;31.99;63.78;100997.44;5079715;27;69112;-37
2023/11/10 05:10:03;;;;;;;;;;;;;;;31.99;63.70;100992.84;5100906;27;67142;-39
2023/11/10 05:12:36;;;;;;;;;;;;;;;32.02;63.68;100992.41;5102833;27;70190;-37
2023/11/10 05:15:08;;;;;;;;;;;;;;;32.05;63.71;100993.81;5101210;27;66629;-37
2023/11/10 05:17:39;;;;;;;;;;;;;;;32.08;63.60;100989.84;5101737;27;70528;-36
2023/11/10 05:20:10;;;;;;;;;;;;;;;32.09;63.60;100983.34;5084844;27;66588;-38
2023/11/10 05:22:40;;;;;;;;;;;;;;;32.10;63.63;100983.13;5101244;27;70469;-36
2023/11/10 05:25:11;;;;;;;;;;;;;;;32.13;63.56;100987.28;5101647;27;66852;-37
2023/11/10 05:27:40;;;;;;;;;;;;;;;32.14;63.61;100972.66;5103100;27;69874;-38
2023/11/10 05:30:12;;;;;;;;;;;;;;;32.16;63.39;100976.78;5101975;27;66280;-37
2023/11/10 05:32:42;;;;;;;;;;;;;;;32.19;63.32;100975.50;5102636;27;70210;-39
2023/11/10 05:35:12;;;;;;;;;;;;;;;32.20;63.28;100971.72;5102445;27;66431;-38
2023/11/10 05:37:42;;;;;;;;;;;;;;;32.22;63.42;100964.19;5102316;27;70182;-37
2023/11/10 05:40:14;;;;;;;;;;;;;;;32.24;63.23;100967.53;5089186;27;66433;-37
2023/11/10 05:42:44;;;;;;;;;;;;;;;32.26;63.23;100965.38;5100984;27;69529;-37
2023/11/10 05:45:14;;;;;;;;;;;;;;;32.28;63.16;100952.41;5101831;27;66588;-36
2023/11/10 05:47:44;;;;;;;;;;;;;;;32.30;63.14;100952.22;5101532;27;70473;-37
2023/11/10 05:50:16;;;;;;;;;;;;;;;32.33;62.93;100943.59;5101354;27;66047;-38
2023/11/10 05:52:46;;;;;;;;;;;;;;;32.34;63.02;100932.50;5097209;27;71291;-37
2023/11/10 05:55:16;;;;;;;;;;;;;;;32.37;63.08;100934.75;5102463;27;66827;-37
2023/11/10 05:57:48;;;;;;;;;;;;;;;32.39;63.12;100934.53;5083389;27;70209;-37
2023/11/10 06:00:18;;;;;;;;;;;;;;;32.41;62.72;100937.84;5103054;27;66898;-37
2023/11/10 06:02:48;;;;;;;;;;;;;;;32.42;62.82;100943.03;5103932;27;69977;-49
2023/11/10 06:05:22;;;;;;;;;;;;;;;32.45;62.55;100934.44;5101960;27;65685;-38
2023/11/10 06:07:54;;;;;;;;;;;;;;;32.47;62.82;100929.66;5102144;27;69960;-41
2023/11/10 06:10:24;;;;;;;;;;;;;;;32.49;62.50;100916.69;5101974;27;65446;-38
2023/11/10 06:12:54;;;;;;;;;;;;;;;32.53;62.56;100910.78;5099691;27;69912;-38
2023/11/10 06:15:24;;;;;;;;;;;;;;;32.54;62.56;100898.84;5100671;27;66283;-37
2023/11/10 06:17:54;;;;;;;;;;;;;;;32.54;62.50;100902.41;5102173;27;70962;-37
2023/11/10 06:20:24;;;;;;;;;;;;;;;32.57;62.51;100892.94;5108940;27;66160;-37
2023/11/10 06:22:54;;;;;;;;;;;;;;;32.58;62.47;100881.88;5091503;27;70024;-38
2023/11/10 06:25:24;;;;;;;;;;;;;;;32.59;62.29;100882.69;5098454;27;66496;-37
2023/11/10 06:27:54;;;;;;;;;;;;;;;32.61;62.33;100880.59;5099358;27;69201;-37
2023/11/10 06:30:24;;;;;;;;;;;;;;;32.62;62.21;100871.34;5100860;27;67017;-37
2023/11/10 06:32:54;;;;;;;;;;;;;;;32.63;62.19;100867.59;5100415;27;70711;-38
2023/11/10 06:35:24;;;;;;;;;;;;;;;32.65;62.05;100862.75;5099965;27;67107;-37
2023/11/10 06:37:54;;;;;;;;;;;;;;;32.66;62.24;100850.84;5088083;27;70043;-37
2023/11/10 06:40:25;;;;;;;;;;;;;;;32.68;62.19;100854.97;5101285;27;66728;-37
2023/11/10 06:42:58;;;;;;;;;;;;;;;32.69;62.12;100839.50;5088768;27;69258;-38
2023/11/10 06:45:28;;;;;;;;;;;;;;;32.70;62.15;100841.16;5101991;27;66371;-38
2023/11/10 06:48:02;;;;;;;;;;;;;;;32.73;62.00;100835.25;5101554;27;70647;-38
2023/11/10 06:50:32;;;;;;;;;;;;;;;32.75;62.12;100833.13;5099006;27;66468;-37
2023/11/10 06:53:02;;;;;;;;;;;;;;;32.76;62.21;100829.34;5082336;27;69866;-37
2023/11/10 06:55:32;;;;;;;;;;;;;;;32.79;61.98;100822.63;5100316;27;66044;-44
2023/11/10 06:58:02;;;;;;;;;;;;;;;32.80;61.79;100827.81;5101980;27;70491;-37
2023/11/10 07:00:33;;;;;;;;;;;;;;;32.82;61.80;100817.56;5101814;27;66232;-37
2023/11/10 07:03:03;;;;;;;;;;;;;;;32.83;61.77;100813.78;5100654;27;70329;-37
2023/11/10 07:05:33;;;;;;;;;;;;;;;32.85;61.66;100821.69;5089084;27;66157;-37
2023/11/10 07:08:09;;;;;;;;;;;;;;;32.86;61.58;100813.28;5089451;27;70914;-38
2023/11/10 07:10:43;;;;;;;;;;;;;;;32.87;61.48;100817.66;5100601;27;66735;-37
2023/11/10 07:13:14;;;;;;;;;;;;;;;32.87;61.80;100809.50;5100033;27;69954;-37
2023/11/10 07:15:48;;;;;;;;;;;;;;;32.89;61.94;100806.56;5101755;27;66818;-37
2023/11/10 07:18:18;;;;;;;;;;;;;;;32.90;61.65;100813.66;5100894;27;70589;-37
2023/11/10 07:20:48;;;;;;;;;;;;;;;32.90;61.41;100809.06;5101635;27;65643;-37
2023/11/10 07:23:19;;;;;;;;;;;;;;;32.92;61.62;100796.03;5100406;27;70795;-37
2023/11/10 07:25:50;;;;;;;;;;;;;;;32.93;61.50;100796.88;5100525;27;66422;-37
2023/11/10 07:28:20;;;;;;;;;;;;;;;32.96;61.53;100795.56;5100304;27;69252;-37
2023/11/10 07:30:50;;;;;;;;;;;;;;;32.96;61.56;100784.69;5100192;27;67060;-38
2023/11/10 07:33:20;;;;;;;;;;;;;;;32.98;61.43;100785.31;5100686;27;72035;-38
2023/11/10 07:35:50;;;;;;;;;;;;;;;32.98;61.20;100782.59;5098572;27;66255;-37
2023/11/10 07:38:20;;;;;;;;;;;;;;;33.00;61.40;100780.50;5099383;27;69740;-37
2023/11/10 07:40:51;;;;;;;;;;;;;;;33.03;61.39;100774.59;5101350;27;66040;-37
2023/11/10 07:43:24;;;;;;;;;;;;;;;33.03;61.52;100780.84;5082197;27;69707;-37
2023/11/10 07:45:54;;;;;;;;;;;;;;;33.06;61.05;100768.66;5098682;27;65927;-37
2023/11/10 07:48:24;;;;;;;;;;;;;;;33.06;61.30;100774.09;5088997;27;70409;-37
2023/11/10 07:50:54;;;;;;;;;;;;;;;33.07;61.12;100771.16;5100773;27;66590;-37
2023/11/10 07:53:28;;;;;;;;;;;;;;;33.07;61.21;100771.16;5077628;27;69983;-36
2023/11/10 07:55:58;;;;;;;;;;;;;;;33.08;61.07;100761.09;5100733;27;67004;-37
2023/11/10 07:58:28;;;;;;;;;;;;;;;33.09;61.34;100760.84;5082538;27;70203;-37
2023/11/10 08:00:58;;;;;;;;;;;;;;;33.10;61.09;100772.56;5098929;27;65652;-38
2023/11/10 08:03:27;;;;;;;;;;;;;;;33.11;61.08;100763.34;5100306;27;70555;-38
2023/11/10 08:05:57;;;;;;;;;;;;;;;33.11;61.23;100760.63;5100652;27;65631;-37
2023/11/10 08:08:27;;;;;;;;;;;;;;;33.12;61.37;100767.72;5079967;27;69737;-37
2023/11/10 08:10:57;;;;;;;;;;;;;;;33.11;61.20;100761.44;5100556;27;66696;-38
2023/11/10 08:13:27;;;;;;;;;;;;;;;33.13;61.03;100766.66;5078253;27;70239;-37
2023/11/10 08:15:58;;;;;;;;;;;;;;;33.12;60.94;100757.66;5097905;27;66101;-37
2023/11/10 08:18:27;;;;;;;;;;;;;;;33.13;61.26;100755.78;5099363;27;70486;-36
2023/11/10 08:20:57;;;;;;;;;;;;;;;33.15;60.99;100756.34;5098945;27;66683;-38
2023/11/10 08:23:27;;;;;;;;;;;;;;;33.15;61.07;100756.34;5096926;27;70177;-36
2023/11/10 08:25:57;;;;;;;;;;;;;;;33.17;61.40;100764.28;5091686;27;66885;-36
2023/11/10 08:28:28;;;;;;;;;;;;;;;33.15;61.23;100764.50;5099564;27;69120;-37
2023/11/10 08:30:58;;;;;;;;;;;;;;;33.15;61.07;100768.09;5080870;27;66658;-38
2023/11/10 08:33:28;;;;;;;;;;;;;;;33.16;61.23;100768.91;5099320;27;70758;-37
2023/11/10 08:35:58;;;;;;;;;;;;;;;33.16;61.06;100768.91;5099463;27;66005;-37
2023/11/10 08:38:31;;;;;;;;;;;;;;;33.15;61.20;100772.66;5100905;27;68355;-37
2023/11/10 08:41:01;;;;;;;;;;;;;;;33.15;61.24;100778.94;5103437;27;65911;-38
2023/11/10 08:43:32;;;;;;;;;;;;;;;33.16;61.28;100779.78;5103449;27;70123;-38
2023/11/10 08:46:02;;;;;;;;;;;;;;;33.16;61.13;100774.34;5103042;27;66782;-37
2023/11/10 08:48:32;;;;;;;;;;;;;;;33.16;60.99;100790.66;5092949;27;69765;-37
2023/11/10 08:51:02;;;;;;;;;;;;;;;33.16;61.17;100790.66;5102808;27;66924;-37
2023/11/10 08:53:32;;;;;;;;;;;;;;;33.16;61.02;100790.66;5103738;27;69716;-37
2023/11/10 08:56:05;;;;;;;;;;;;;;;33.16;61.21;100793.38;5103898;27;66972;-38
2023/11/10 08:58:35;;;;;;;;;;;;;;;33.15;61.34;100795.25;5101654;27;69632;-38
2023/11/10 09:01:06;;;;;;;;;;;;;;;33.16;61.14;100806.94;5100629;27;66014;-37
2023/11/10 09:03:35;;;;;;;;;;;;;;;33.15;61.50;100799.84;5102925;27;69882;-38
2023/11/10 09:06:06;;;;;;;;;;;;;;;33.15;61.31;100805.28;5101836;27;66939;-38
2023/11/10 09:08:35;;;;;;;;;;;;;;;33.15;61.10;100806.13;5103293;27;69403;-38
2023/11/10 09:11:06;;;;;;;;;;;;;;;33.13;61.21;100797.38;5084988;27;67000;-37
2023/11/10 09:13:36;;;;;;;;;;;;;;;33.13;61.38;100804.72;5102007;27;70320;-37
2023/11/10 09:16:06;;;;;;;;;;;;;;;33.13;61.43;100796.56;5100351;27;66189;-37
2023/11/10 09:18:38;;;;;;;;;;;;;;;33.11;61.46;100810.38;5102952;27;70391;-38
2023/11/10 09:21:12;;;;;;;;;;;;;;;32.81;64.08;100805.03;5092555;27;66705;-38
2023/11/10 09:23:43;;;;;;;;;;;;;;;32.66;65.41;100821.78;5084128;27;69865;-37
2023/11/10 09:26:14;;;;;;;;;;;;;;;32.57;66.62;100825.06;5081527;27;66690;-38
2023/11/10 09:28:47;;;;;;;;;;;;;;;32.55;66.66;100832.63;5065785;27;71612;-38
2023/11/10 09:31:17;;;;;;;;;;;;;;;32.49;67.34;100831.69;5082393;27;65147;-38
2023/11/10 09:33:50;;;;;;;;;;;;;;;32.48;67.76;100835.44;5088111;27;69050;-37
2023/11/10 09:36:20;;;;;;;;;;;;;;;32.46;68.15;100834.88;5091654;27;67057;-40
2023/11/10 09:38:50;;;;;;;;;;;;;;;32.62;67.32;100833.34;5092187;27;70403;-38
2023/11/10 09:41:21;;;;;;;;;;;;;;;32.76;66.34;100834.78;5101265;27;67575;-39
2023/11/10 09:43:53;;;;;;;;;;;;;;;32.83;65.94;100830.06;5099587;27;70706;-40
2023/11/10 09:46:24;;;;;;;;;;;;;;;32.86;66.03;100818.72;5102315;27;66052;-38
2023/11/10 09:48:54;;;;;;;;;;;;;;;32.89;66.21;100822.88;5099083;27;69865;-38
2023/11/10 09:51:25;;;;;;;;;;;;;;;32.89;66.13;100823.69;5101790;27;65910;-37
2023/11/10 09:53:58;;;;;;;;;;;;;;;32.91;66.14;100813.41;5099067;27;69870;-38
2023/11/10 09:56:29;;;;;;;;;;;;;;;32.92;65.99;100817.78;5097412;27;66124;-38
2023/11/10 09:59:02;;;;;;;;;;;;;;;32.92;66.02;100819.69;5099060;27;69863;-39
2023/11/10 10:01:32;;;;;;;;;;;;;;;32.91;66.48;100832.44;5101835;27;66406;-39
2023/11/10 10:04:03;;;;;;;;;;;;;;;32.91;66.42;100837.88;5097832;27;70607;-40
2023/11/10 10:06:35;;;;;;;;;;;;;;;32.91;66.42;100848.75;5085468;27;65568;-38
2023/11/10 10:09:05;;;;;;;;;;;;;;;32.90;66.43;100857.97;5100180;27;70213;-37
2023/11/10 10:11:35;;;;;;;;;;;;;;;32.91;67.01;100858.78;5100474;27;66849;-38
2023/11/10 10:14:05;;;;;;;;;;;;;;;32.90;66.98;100866.13;5101674;27;70474;-38
2023/11/10 10:16:35;;;;;;;;;;;;;;;32.74;67.74;100874.94;5098248;27;65353;-39
2023/11/10 10:19:06;;;;;;;;;;;;;;;32.52;69.38;100884.69;5099436;27;70243;-38
2023/11/10 10:21:42;;;;;;;;;;;;;;;32.37;70.10;100885.88;5096323;27;65742;-37
2023/11/10 10:24:12;;;;;;;;;;;;;;;32.30;70.30;100887.06;5094734;27;70798;-38
2023/11/10 10:26:41;;;;;;;;;;;;;;;32.21;70.94;100887.38;5096626;27;66162;-38
2023/11/10 10:29:12;;;;;;;;;;;;;;;32.13;71.37;100893.13;5091342;27;69283;-37
2023/11/10 10:31:42;;;;;;;;;;;;;;;32.10;71.10;100876.47;5095266;27;66781;-37
2023/11/10 10:34:12;;;;;;;;;;;;;;;32.05;71.13;100875.25;5091905;27;70535;-37
2023/11/10 10:36:44;;;;;;;;;;;;;;;32.05;71.56;100879.88;5094832;27;67074;-37
2023/11/10 10:39:18;;;;;;;;;;;;;;;32.02;71.54;100883.88;5074179;27;70069;-38
2023/11/10 10:41:51;;;;;;;;;;;;;;;31.99;71.90;100878.91;5088121;27;66696;-38
2023/11/10 10:44:21;;;;;;;;;;;;;;;31.99;72.08;100878.91;5089061;27;69131;-38
2023/11/10 10:46:52;;;;;;;;;;;;;;;31.97;72.00;100875.56;5089650;27;66150;-38
2023/11/10 10:49:23;;;;;;;;;;;;;;;31.95;72.35;100883.09;5091644;27;70706;-39
2023/11/10 10:51:54;;;;;;;;;;;;;;;31.93;72.58;100887.94;5096971;27;66155;-38
2023/11/10 10:54:23;;;;;;;;;;;;;;;31.91;72.78;100892.78;5073457;27;70604;-39
2023/11/10 10:56:54;;;;;;;;;;;;;;;31.90;73.36;100891.09;5095754;27;65938;-38
2023/11/10 10:59:27;;;;;;;;;;;;;;;31.93;73.25;100897.94;5087543;27;71008;-38
2023/11/10 11:01:57;;;;;;;;;;;;;;;31.86;73.49;100900.72;5089081;27;66006;-40
2023/11/10 11:04:28;;;;;;;;;;;;;;;31.87;73.75;100906.97;5089412;27;70502;-38
2023/11/10 11:07:12;;;;;;;;;;;;;;;31.88;73.85;100904.03;5087641;27;66341;-37
2023/11/10 11:09:42;;;;;;;;;;;;;;;31.88;74.24;100914.91;5088595;27;69801;-39
2023/11/10 11:12:20;;;;;;;;;;;;;;;31.93;74.85;100917.78;5094475;27;66903;-38
2023/11/10 11:14:53;;;;;;;;;;;;;;;32.11;73.05;100919.66;5084912;27;68941;-38
2023/11/10 11:17:26;;;;;;;;;;;;;;;32.22;72.13;100931.63;5083170;27;67074;-38
2023/11/10 11:19:58;;;;;;;;;;;;;;;32.28;71.46;100941.56;5089296;27;70596;-37
2023/11/10 11:22:28;;;;;;;;;;;;;;;32.33;71.16;100949.84;5093496;27;66961;-39
2023/11/10 11:25:08;;;;;;;;;;;;;;;32.38;70.88;100958.16;5089190;27;70558;-39
2023/11/10 11:27:38;;;;;;;;;;;;;;;32.41;70.51;100957.69;5089246;27;66561;-38
2023/11/10 11:30:10;;;;;;;;;;;;;;;32.43;70.29;100958.28;5090190;27;70282;-38
2023/11/10 11:32:41;;;;;;;;;;;;;;;32.44;70.13;100957.22;5091134;27;66779;-37
2023/11/10 11:35:14;;;;;;;;;;;;;;;32.46;69.99;100954.31;5078250;27;69859;-38
2023/11/10 11:37:45;;;;;;;;;;;;;;;32.47;69.95;100962.22;5093273;27;66982;-38
2023/11/10 11:40:15;;;;;;;;;;;;;;;32.50;69.79;100966.38;5092496;27;68664;-38
2023/11/10 11:42:48;;;;;;;;;;;;;;;32.50;69.73;100966.38;5097622;27;65474;-37
2023/11/10 11:45:19;;;;;;;;;;;;;;;32.49;69.74;100970.97;5101109;27;70456;-39
2023/11/10 11:47:49;;;;;;;;;;;;;;;32.52;69.40;100974.31;5101216;27;65893;-38
2023/11/10 11:50:19;;;;;;;;;;;;;;;32.52;69.31;100974.31;5101694;27;70505;-38
2023/11/10 11:52:49;;;;;;;;;;;;;;;32.52;69.44;100979.72;5101539;27;66389;-38
2023/11/10 11:55:21;;;;;;;;;;;;;;;32.53;69.30;100975.94;5101011;27;69845;-38
2023/11/10 11:57:51;;;;;;;;;;;;;;;32.51;69.33;100969.91;5102607;27;66889;-38
2023/11/10 12:00:22;;;;;;;;;;;;;;;32.52;69.43;100974.31;5083491;27;70241;-38
2023/11/10 12:02:55;;;;;;;;;;;;;;;32.49;69.51;100979.13;5099776;27;67356;-38
2023/11/10 12:05:26;;;;;;;;;;;;;;;32.48;69.16;100980.19;5102753;27;69960;-38
2023/11/10 12:07:56;;;;;;;;;;;;;;;32.49;69.19;100995.41;5100191;27;65704;-39
2023/11/10 12:10:26;;;;;;;;;;;;;;;32.48;69.29;100993.78;5066243;27;69210;-38
2023/11/10 12:12:56;;;;;;;;;;;;;;;32.46;69.08;101004.03;5099764;27;66925;-38
2023/11/10 12:15:27;;;;;;;;;;;;;;;32.45;69.36;101009.63;5104458;27;69291;-38
2023/11/10 12:17:58;;;;;;;;;;;;;;;32.45;69.31;101005.03;5087882;27;66890;-37
2023/11/10 12:20:30;;;;;;;;;;;;;;;32.44;69.26;101027.81;5104845;27;71213;-39
2023/11/10 12:23:00;;;;;;;;;;;;;;;32.43;69.25;101037.03;5083704;27;65530;-39
2023/11/10 12:25:35;;;;;;;;;;;;;;;32.26;72.10;101041.38;5084224;27;69936;-38
2023/11/10 12:28:14;;;;;;;;;;;;;;;32.09;73.36;101037.63;5094145;27;64611;-39
2023/11/10 12:30:45;;;;;;;;;;;;;;;32.02;74.08;101049.38;5093146;27;70584;-39
2023/11/10 12:33:16;;;;;;;;;;;;;;;31.93;74.99;101048.00;5102974;27;66078;-39
2023/11/10 12:35:47;;;;;;;;;;;;;;;31.87;75.09;101054.28;5093612;27;70206;-39
2023/11/10 12:38:16;;;;;;;;;;;;;;;31.81;75.40;101055.16;5096013;27;66879;-38
2023/11/10 12:40:49;;;;;;;;;;;;;;;31.77;75.54;101052.09;5080724;27;69367;-38
2023/11/10 12:43:22;;;;;;;;;;;;;;;31.76;76.13;101058.56;5094434;27;66567;-39
2023/11/10 12:45:52;;;;;;;;;;;;;;;31.75;77.37;101067.75;5077267;27;69763;-37
2023/11/10 12:48:24;;;;;;;;;;;;;;;31.76;77.89;101058.56;5098365;27;66028;-37
2023/11/10 12:50:55;;;;;;;;;;;;;;;31.78;77.97;101072.72;5092553;27;69710;-37
2023/11/10 12:53:30;;;;;;;;;;;;;;;31.75;78.43;101075.06;5084121;27;65707;-38